Time;durP1;ratioP1;P1;durP2;ratioP2;P2;SDS_P1;SDS_P2;PMS_P1;PMS_P2;Temp;Humidity;BMP_temperature;BMP_pressure;BME280_temperature;BME280_humidity;BME280_pressure;Samples;Min_cycle;Max_cycle;Signal;HPM_P1;HPM_P2
2022/02/05 00:43:11;;;;;;;2.97;1.20;;;4.40;99.90;;;;;;5004830;28;20105;-58
2022/02/05 00:45:42;;;;;;;4.05;1.00;;;4.50;99.90;;;;;;5003660;28;20053;-56
2022/02/05 00:48:10;;;;;;;6.15;1.63;;;4.40;99.90;;;;;;5004778;28;20202;-58
2022/02/05 00:50:41;;;;;;;3.05;1.17;;;4.40;99.90;;;;;;5002487;28;20137;-59
2022/02/05 00:53:33;;;;;;;3.30;1.30;;;4.40;99.90;;;;;;5004500;28;20050;-60
2022/02/05 00:56:09;;;;;;;2.38;1.23;;;4.40;99.90;;;;;;5002716;28;20108;-56
2022/02/05 00:58:37;;;;;;;3.05;1.20;;;4.30;99.90;;;;;;5000716;28;20089;-57
2022/02/05 01:01:09;;;;;;;2.97;1.10;;;4.30;99.90;;;;;;5003548;28;20236;-54
2022/02/05 01:03:37;;;;;;;3.83;1.00;;;4.30;99.90;;;;;;5003849;28;20050;-59
2022/02/05 01:06:04;;;;;;;2.92;1.10;;;4.30;99.90;;;;;;5005192;28;20141;-57
2022/02/05 01:08:33;;;;;;;3.05;1.02;;;4.30;99.90;;;;;;5002764;28;20468;-61
2022/02/05 01:10:59;;;;;;;6.15;1.17;;;4.20;99.90;;;;;;5004282;28;20089;-58
2022/02/05 01:13:28;;;;;;;4.28;1.08;;;4.20;99.90;;;;;;5003617;28;20085;-55
2022/02/05 01:16:10;;;;;;;6.55;1.92;;;4.20;99.90;;;;;;5003753;28;20129;-61
2022/02/05 01:18:39;;;;;;;2.97;1.25;;;4.20;99.90;;;;;;5003248;28;20149;-58
2022/02/05 01:23:58;;;;;;;2.67;0.82;;;4.20;99.90;;;;;;5003527;28;20457;-56
2022/02/05 01:26:34;;;;;;;3.08;1.30;;;4.10;99.90;;;;;;5004224;28;20156;-56
2022/02/05 01:29:07;;;;;;;2.63;1.10;;;4.10;99.90;;;;;;5002516;28;20085;-57
2022/02/05 01:31:43;;;;;;;3.97;0.95;;;4.10;99.90;;;;;;5004228;28;20176;-57
2022/02/05 01:56:26;;;;;;;3.00;0.70;;;3.80;99.90;;;;;;5001950;28;20655;-57
2022/02/05 01:58:36;;;;;;;3.10;1.10;;;3.80;99.90;;;;;;5001474;28;20136;-57
2022/02/05 02:11:54;;;;;;;4.13;1.10;;;3.70;99.90;;;;;;5001858;28;20073;-57
2022/02/05 02:19:45;;;;;;;3.67;1.15;;;3.70;99.90;;;;;;5001788;28;20089;-57
2022/02/05 02:27:28;;;;;;;2.38;1.13;;;3.70;99.90;;;;;;5001435;28;20084;-57
2022/02/05 02:30:06;;;;;;;4.78;1.30;;;3.60;99.90;;;;;;5000939;28;20493;-58
2022/02/05 02:32:43;;;;;;;3.50;1.15;;;3.60;99.90;;;;;;5002541;28;20054;-55
2022/02/05 02:35:15;;;;;;;5.15;1.42;;;3.70;99.90;;;;;;4995156;28;20089;-58
2022/02/05 02:37:58;;;;;;;3.65;1.08;;;3.60;99.90;;;;;;5004378;28;20129;-58
2022/02/05 02:43:01;;;;;;;3.78;2.10;;;3.60;99.90;;;;;;5003918;28;20521;-58
2022/02/05 02:45:27;;;;;;;3.00;1.30;;;3.60;99.90;;;;;;5001095;28;20631;-56
2022/02/05 02:47:54;;;;;;;3.97;1.30;;;3.60;99.90;;;;;;5004623;28;20457;-58
2022/02/05 02:58:26;;;;;;;4.00;0.85;;;3.60;99.90;;;;;;5003036;28;20092;-56
2022/02/05 03:00:59;;;;;;;2.85;0.98;;;3.60;99.90;;;;;;5003100;28;20367;-56
2022/02/05 03:03:27;;;;;;;3.47;1.20;;;3.60;99.90;;;;;;5002607;28;20508;-58
2022/02/05 03:05:53;;;;;;;2.42;1.05;;;3.60;99.90;;;;;;5003292;28;20085;-56
2022/02/05 03:08:20;;;;;;;3.00;1.00;;;3.60;99.90;;;;;;5003530;28;20081;-56
2022/02/05 03:10:47;;;;;;;3.03;1.00;;;3.50;99.90;;;;;;5003564;28;20524;-57
2022/02/05 03:13:14;;;;;;;1.75;0.90;;;3.50;99.90;;;;;;5001922;28;20293;-56
2022/02/05 03:15:45;;;;;;;4.20;1.10;;;3.50;99.90;;;;;;5001894;28;20072;-58
2022/02/05 03:18:26;;;;;;;5.15;1.23;;;3.60;99.90;;;;;;5002771;28;20497;-56
2022/02/05 03:20:53;;;;;;;2.72;1.08;;;3.50;99.90;;;;;;5003536;28;20446;-56
2022/02/05 03:23:19;;;;;;;2.20;0.90;;;3.50;99.90;;;;;;5002039;28;20550;-55
2022/02/05 03:25:46;;;;;;;3.72;1.13;;;3.50;99.90;;;;;;5003722;28;20058;-56
2022/02/05 03:28:13;;;;;;;2.13;0.90;;;3.50;99.90;;;;;;5003866;28;20089;-58
2022/02/05 03:30:40;;;;;;;3.08;1.10;;;3.50;99.90;;;;;;5002523;28;20128;-58
2022/02/05 03:33:06;;;;;;;2.88;1.00;;;3.50;99.90;;;;;;5003716;28;20073;-58
2022/02/05 03:35:36;;;;;;;2.38;0.70;;;3.50;99.90;;;;;;5002822;28;20105;-58
2022/02/05 03:38:03;;;;;;;3.70;1.25;;;3.40;99.90;;;;;;5003313;28;20057;-58
2022/02/05 03:40:30;;;;;;;4.35;1.10;;;3.40;99.90;;;;;;5003507;28;20128;-58
2022/02/05 03:42:56;;;;;;;2.88;1.40;;;3.40;99.90;;;;;;5003654;28;20086;-58
2022/02/05 03:45:23;;;;;;;2.33;0.82;;;3.40;99.90;;;;;;5001753;28;20440;-57
2022/02/05 03:47:52;;;;;;;2.92;0.90;;;3.40;99.90;;;;;;5003814;28;20073;-56
2022/02/05 03:50:18;;;;;;;1.60;0.70;;;3.40;99.90;;;;;;5002492;28;20080;-57
2022/02/05 03:52:45;;;;;;;4.45;1.25;;;3.40;99.90;;;;;;5003557;28;20086;-56
2022/02/05 03:55:12;;;;;;;2.15;0.82;;;3.40;99.90;;;;;;5003034;28;20077;-57
2022/02/05 03:57:39;;;;;;;2.22;0.88;;;3.30;99.90;;;;;;5004034;28;20049;-57
2022/02/05 04:00:07;;;;;;;1.52;0.88;;;3.30;99.90;;;;;;5001710;28;20149;-57
2022/02/05 04:02:35;;;;;;;3.08;0.80;;;3.30;99.90;;;;;;5003554;28;20382;-56
2022/02/05 04:05:02;;;;;;;3.50;1.00;;;3.30;99.90;;;;;;5000065;28;20046;-55
2022/02/05 04:07:31;;;;;;;2.50;0.77;;;3.30;99.90;;;;;;5002505;28;20081;-55
2022/02/05 04:10:02;;;;;;;2.50;0.68;;;3.30;99.90;;;;;;5002624;28;20046;-57
2022/02/05 04:17:59;;;;;;;3.35;1.10;;;3.30;99.90;;;;;;4991899;28;20050;-58
2022/02/05 04:20:27;;;;;;;1.33;0.75;;;3.20;99.90;;;;;;5002689;28;20099;-57
2022/02/05 04:22:54;;;;;;;3.50;0.80;;;3.20;99.90;;;;;;5003543;28;20089;-58
2022/02/05 04:25:21;;;;;;;1.83;1.20;;;3.20;99.90;;;;;;4995905;28;20418;-59
2022/02/05 04:27:48;;;;;;;2.72;0.90;;;3.20;99.90;;;;;;5003051;28;20086;-56
2022/02/05 04:30:15;;;;;;;2.58;1.08;;;3.20;99.90;;;;;;5001151;28;20450;-58
2022/02/05 04:32:42;;;;;;;4.78;1.10;;;3.20;99.90;;;;;;5008329;28;20046;-58
2022/02/05 04:35:09;;;;;;;3.50;1.75;;;3.20;99.90;;;;;;5000593;28;20077;-57
2022/02/05 04:37:35;;;;;;;3.63;1.40;;;3.20;99.90;;;;;;5003020;28;20568;-58
2022/02/05 04:43:10;;;;;;;1.63;0.63;;;3.20;99.90;;;;;;5006544;28;20124;-57
2022/02/05 05:02:13;;;;;;;2.43;1.00;;;3.10;99.90;;;;;;5006633;28;20085;-57
2022/02/05 05:12:26;;;;;;;2.20;0.70;;;3.10;99.90;;;;;;5005997;28;20077;-59
2022/02/05 05:20:24;;;;;;;3.40;1.00;;;3.10;99.90;;;;;;5004579;28;20137;-56
2022/02/05 05:22:51;;;;;;;3.35;0.88;;;3.10;99.90;;;;;;5005796;28;20077;-58
2022/02/05 05:25:19;;;;;;;3.17;1.00;;;3.00;99.90;;;;;;5005414;28;20460;-58
2022/02/05 05:27:45;;;;;;;3.63;1.10;;;3.00;99.90;;;;;;5005563;28;20131;-58
2022/02/05 05:30:12;;;;;;;1.80;0.68;;;3.10;99.90;;;;;;5003832;28;20133;-57
2022/02/05 05:32:39;;;;;;;2.78;1.00;;;3.00;99.90;;;;;;5005428;28;20882;-57
2022/02/05 05:35:06;;;;;;;1.73;0.90;;;3.10;99.90;;;;;;5004692;28;20442;-57
2022/02/05 05:37:33;;;;;;;2.30;0.95;;;3.10;99.90;;;;;;5004742;28;20095;-58
2022/02/05 05:40:00;;;;;;;2.58;1.13;;;3.00;99.90;;;;;;5004393;28;20136;-58
2022/02/05 05:42:37;;;;;;;2.47;0.80;;;3.10;99.90;;;;;;5004108;28;20081;-58
2022/02/05 05:47:36;;;;;;;1.63;0.77;;;3.10;99.90;;;;;;5003621;28;20465;-58
2022/02/05 05:50:34;;;;;;;2.85;0.80;;;3.10;99.90;;;;;;5004626;28;20128;-58
2022/02/05 05:52:56;;;;;;;1.23;0.82;;;3.00;99.90;;;;;;5004853;28;20418;-58
2022/02/05 05:55:23;;;;;;;1.27;0.75;;;3.10;99.90;;;;;;5004927;28;20092;-57
2022/02/05 05:57:50;;;;;;;2.28;0.77;;;3.10;99.90;;;;;;5000980;28;20093;-58
2022/02/05 06:00:16;;;;;;;3.85;1.10;;;3.10;99.90;;;;;;4997630;28;20529;-58
2022/02/05 06:02:44;;;;;;;3.03;1.08;;;3.10;99.90;;;;;;4990164;28;20073;-57
2022/02/05 06:05:11;;;;;;;2.75;1.17;;;3.20;99.90;;;;;;4991098;28;20141;-59
2022/02/05 06:07:37;;;;;;;13.75;4.10;;;3.20;99.90;;;;;;5006691;28;20125;-59
2022/02/05 06:10:05;;;;;;;4.07;1.10;;;3.30;99.90;;;;;;4991167;28;20073;-59
2022/02/05 06:12:32;;;;;;;3.13;1.08;;;3.20;99.90;;;;;;4991194;28;20465;-59
2022/02/05 06:15:01;;;;;;;3.88;1.10;;;3.20;99.90;;;;;;4991040;28;20173;-59
2022/02/05 06:17:28;;;;;;;2.63;0.98;;;3.20;99.90;;;;;;4993540;28;20168;-58
2022/02/05 06:19:55;;;;;;;4.25;1.40;;;3.30;99.90;;;;;;4988268;28;20057;-58
2022/02/05 06:22:22;;;;;;;3.67;0.90;;;3.30;99.90;;;;;;4991917;28;20050;-58
2022/02/05 06:24:48;;;;;;;2.97;0.90;;;3.30;99.90;;;;;;4992591;28;20476;-59
2022/02/05 06:27:15;;;;;;;3.67;1.25;;;3.30;99.90;;;;;;4988623;28;20132;-59
2022/02/05 06:29:42;;;;;;;3.92;0.98;;;3.30;99.90;;;;;;4989941;28;20264;-56
2022/02/05 06:32:09;;;;;;;2.00;0.90;;;3.30;99.90;;;;;;4988334;28;20200;-59
2022/02/05 06:34:36;;;;;;;2.67;0.90;;;3.30;99.90;;;;;;4989522;28;20133;-58
2022/02/05 06:37:03;;;;;;;3.90;1.30;;;3.30;99.90;;;;;;5004949;28;20529;-58
2022/02/05 06:39:30;;;;;;;3.30;1.08;;;3.30;99.90;;;;;;4990289;28;20620;-58
2022/02/05 06:41:57;;;;;;;3.67;1.02;;;3.40;99.90;;;;;;4991140;28;20152;-59
2022/02/05 06:44:24;;;;;;;5.53;1.27;;;3.40;99.90;;;;;;4989165;28;20086;-58
2022/02/05 06:46:50;;;;;;;3.97;1.13;;;3.40;99.90;;;;;;4988652;28;20050;-54
2022/02/05 06:49:18;;;;;;;3.88;1.25;;;3.50;99.90;;;;;;4991660;28;20129;-59
2022/02/05 06:51:46;;;;;;;1.88;0.90;;;3.50;99.90;;;;;;4991417;28;20466;-58
2022/02/05 06:54:12;;;;;;;3.45;0.90;;;3.50;99.90;;;;;;4990225;28;20130;-59
2022/02/05 06:56:39;;;;;;;3.38;1.00;;;3.50;99.90;;;;;;4989427;28;20297;-59
2022/02/05 06:59:06;;;;;;;2.25;0.98;;;3.60;99.90;;;;;;4985579;28;20110;-59
2022/02/05 07:01:32;;;;;;;2.92;1.10;;;3.60;99.90;;;;;;4987567;28;20185;-57
2022/02/05 07:03:59;;;;;;;2.63;1.10;;;3.60;99.90;;;;;;4987830;28;20074;-57
2022/02/05 07:06:26;;;;;;;1.63;0.80;;;3.60;99.90;;;;;;4996201;28;20081;-58
2022/02/05 07:09:00;;;;;;;2.88;1.08;;;3.60;99.90;;;;;;4988194;28;20515;-57
2022/02/05 07:11:26;;;;;;;3.53;0.88;;;3.70;99.90;;;;;;4997907;28;20247;-57
2022/02/05 07:13:56;;;;;;;3.05;1.20;;;3.80;99.90;;;;;;4996999;28;20556;-56
2022/02/05 07:16:38;;;;;;;4.22;1.13;;;3.80;99.90;;;;;;4998751;28;20125;-58
2022/02/05 07:21:36;;;;;;;4.03;1.40;;;3.90;99.90;;;;;;4998040;28;20082;-57
2022/02/05 07:29:20;;;;;;;4.47;1.20;;;4.00;99.90;;;;;;4996328;28;20131;-59
2022/02/05 07:31:48;;;;;;;3.28;1.27;;;4.10;99.90;;;;;;4994122;28;20135;-59
2022/02/05 07:34:16;;;;;;;4.78;1.30;;;4.10;99.90;;;;;;5014656;28;20497;-59
2022/02/05 07:36:43;;;;;;;6.13;1.45;;;4.20;99.90;;;;;;4999130;28;20085;-59
2022/02/05 07:39:10;;;;;;;4.68;1.83;;;4.20;99.90;;;;;;4995643;28;20128;-59
2022/02/05 07:41:39;;;;;;;4.07;1.00;;;4.30;99.90;;;;;;4998130;28;20089;-59
2022/02/05 07:44:05;;;;;;;4.32;1.60;;;4.40;99.90;;;;;;4996877;28;20630;-59
2022/02/05 07:46:32;;;;;;;5.75;1.40;;;4.40;99.90;;;;;;4998410;28;20053;-59
2022/02/05 07:48:59;;;;;;;3.50;1.10;;;4.50;99.90;;;;;;4984162;28;20056;-59
2022/02/05 07:51:26;;;;;;;3.65;1.42;;;4.50;99.90;;;;;;4998270;28;20061;-59
2022/02/05 07:53:53;;;;;;;5.15;2.03;;;4.60;99.90;;;;;;4994095;28;20165;-60
2022/02/05 07:56:19;;;;;;;3.17;1.10;;;4.60;99.90;;;;;;4997091;28;20497;-59
2022/02/05 07:58:46;;;;;;;5.80;1.63;;;4.70;99.90;;;;;;4995967;28;20233;-59
2022/02/05 08:01:13;;;;;;;5.60;1.88;;;4.70;99.90;;;;;;4995889;28;20196;-59
2022/02/05 08:03:40;;;;;;;4.40;1.33;;;4.80;99.90;;;;;;4995428;28;20177;-55
2022/02/05 08:06:15;;;;;;;4.25;1.13;;;4.90;99.90;;;;;;4993994;28;20151;-58
2022/02/05 08:08:42;;;;;;;;;;;4.80;99.90;;;;;;4997816;28;20088;-59
2022/02/05 08:11:13;;;;;;;3.42;0.90;;;4.80;99.90;;;;;;5000164;28;19955;-58
2022/02/05 08:13:42;;;;;;;4.95;1.35;;;4.80;99.90;;;;;;4990183;28;20624;-59
2022/02/05 08:18:50;;;;;;;2.60;0.98;;;4.80;99.90;;;;;;4998111;28;20168;-59
2022/02/05 08:21:17;;;;;;;4.40;1.13;;;4.80;99.90;;;;;;4997840;28;20108;-59
2022/02/05 08:23:44;;;;;;;2.05;0.88;;;4.70;99.90;;;;;;4991484;28;20099;-59
2022/02/05 08:26:10;;;;;;;2.85;1.10;;;4.70;99.90;;;;;;4999526;28;20081;-59
2022/02/05 08:28:37;;;;;;;3.45;1.17;;;4.70;99.90;;;;;;4998090;28;20469;-59
2022/02/05 08:31:04;;;;;;;2.13;1.00;;;4.70;99.90;;;;;;4995038;28;20132;-58
2022/02/05 08:33:31;;;;;;;2.67;1.10;;;4.70;99.90;;;;;;4995682;28;20562;-58
2022/02/05 08:35:59;;;;;;;4.32;1.33;;;4.70;99.90;;;;;;5001508;28;20120;-59
2022/02/05 08:38:26;;;;;;;4.47;1.00;;;4.80;99.90;;;;;;4999199;28;20076;-59
2022/02/05 08:40:53;;;;;;;3.17;1.20;;;4.80;99.90;;;;;;5000981;28;20447;-56
2022/02/05 08:43:20;;;;;;;2.80;0.93;;;4.80;99.90;;;;;;4999555;28;20136;-56
2022/02/05 08:45:47;;;;;;;3.72;0.98;;;4.90;99.90;;;;;;5000310;28;20517;-58
2022/02/05 08:48:14;;;;;;;4.30;1.00;;;4.90;99.90;;;;;;5001581;28;20518;-58
2022/02/05 08:50:41;;;;;;;2.85;1.00;;;4.90;99.90;;;;;;4999698;28;20434;-57
2022/02/05 08:53:10;;;;;;;3.63;1.05;;;4.90;99.90;;;;;;5000632;28;20093;-59
2022/02/05 08:55:36;;;;;;;3.75;2.25;;;5.00;99.90;;;;;;5001337;28;20646;-59
2022/02/05 08:58:08;;;;;;;3.40;1.08;;;5.00;99.90;;;;;;4996492;28;20054;-58
2022/02/05 09:00:44;;;;;;;4.80;1.55;;;5.00;99.90;;;;;;4995544;28;20161;-58
2022/02/05 09:03:20;;;;;;;5.72;1.40;;;5.00;99.90;;;;;;4993471;28;20060;-57
2022/02/05 09:05:48;;;;;;;5.00;1.52;;;5.00;99.90;;;;;;4992667;28;20062;-59
2022/02/05 09:09:28;;;;;;;9.70;1.95;;;5.10;99.90;;;;;;4998831;28;21375;-58
2022/02/05 09:11:34;;;;;;;5.63;1.48;;;5.20;99.90;;;;;;4989688;28;20139;-57
2022/02/05 09:14:16;;;;;;;2.67;1.10;;;5.40;99.90;;;;;;4990323;28;20085;-58
2022/02/05 09:16:44;;;;;;;6.93;1.42;;;5.40;99.90;;;;;;4998762;28;20359;-59
2022/02/05 09:19:12;;;;;;;3.70;1.13;;;5.50;99.90;;;;;;4991518;28;20065;-58
2022/02/05 09:21:39;;;;;;;5.63;1.50;;;5.50;99.90;;;;;;4992699;28;20086;-58
2022/02/05 09:24:07;;;;;;;3.67;1.40;;;5.60;99.90;;;;;;4997061;28;20136;-58
2022/02/05 09:26:39;;;;;;;3.58;1.48;;;5.60;99.90;;;;;;4996738;28;20205;-61
2022/02/05 09:29:13;;;;;;;5.25;1.50;;;5.70;99.90;;;;;;4990690;28;20157;-59
2022/02/05 09:31:40;;;;;;;4.70;1.80;;;5.80;99.90;;;;;;4992242;28;20089;-59
2022/02/05 09:34:07;;;;;;;6.28;1.40;;;5.90;99.90;;;;;;5000239;28;20509;-59
2022/02/05 09:36:34;;;;;;;4.53;1.90;;;5.90;99.90;;;;;;4995976;28;20082;-52
2022/02/05 09:39:01;;;;;;;4.25;1.35;;;6.00;99.90;;;;;;4997947;28;20057;-59
2022/02/05 09:41:28;;;;;;;3.55;0.90;;;6.20;99.90;;;;;;4994872;28;20110;-56
2022/02/05 09:43:55;;;;;;;7.00;1.90;;;6.20;99.90;;;;;;4992888;28;20058;-57
2022/02/05 09:46:22;;;;;;;3.22;1.17;;;6.30;99.90;;;;;;4999287;28;20053;-58
2022/02/05 09:48:49;;;;;;;1.92;0.85;;;6.40;99.90;;;;;;5003013;28;20472;-57
2022/02/05 09:51:28;;;;;;;4.35;1.35;;;6.50;99.90;;;;;;4994803;28;20047;-58
2022/02/05 09:53:56;;;;;;;6.30;1.20;;;6.60;99.90;;;;;;4995999;28;20058;-58
2022/02/05 09:56:24;;;;;;;9.45;1.25;;;6.60;99.90;;;;;;4995509;28;20115;-57
2022/02/05 09:58:51;;;;;;;5.03;2.03;;;6.70;99.90;;;;;;4993011;28;20128;-57
2022/02/05 10:01:22;;;;;;;8.23;2.03;;;6.80;99.90;;;;;;4999182;28;20050;-59
2022/02/05 10:03:50;;;;;;;5.45;1.50;;;6.90;99.90;;;;;;4996124;28;20086;-58
2022/02/05 10:06:27;;;;;;;4.13;1.23;;;7.00;99.90;;;;;;4995056;28;20364;-58
2022/02/05 10:09:20;;;;;;;5.05;1.63;;;7.10;99.90;;;;;;4996287;28;20596;-58
2022/02/05 10:11:50;;;;;;;4.60;1.92;;;7.20;99.90;;;;;;4997508;28;20096;-54
2022/02/05 10:14:22;;;;;;;4.45;1.63;;;7.20;99.90;;;;;;4997594;28;20057;-58
2022/02/05 10:16:57;;;;;;;8.45;2.25;;;7.20;99.90;;;;;;4995783;28;20057;-58
2022/02/05 10:19:25;;;;;;;6.65;1.70;;;7.20;99.90;;;;;;4995059;28;20586;-58
2022/02/05 10:22:05;;;;;;;5.88;1.50;;;7.30;99.90;;;;;;5000522;28;20172;-58
2022/02/05 10:24:32;;;;;;;6.10;1.83;;;7.30;99.90;;;;;;5003050;28;20445;-58
2022/02/05 10:27:00;;;;;;;6.68;1.73;;;7.40;99.90;;;;;;5000138;28;20089;-59
2022/02/05 10:29:27;;;;;;;6.07;1.63;;;7.40;99.90;;;;;;4998178;28;20046;-59
2022/02/05 10:32:14;;;;;;;4.93;1.40;;;7.50;99.90;;;;;;4999646;28;20185;-58
2022/02/05 10:34:54;;;;;;;8.45;1.58;;;7.50;99.90;;;;;;4998241;28;20076;-58
2022/02/05 10:37:30;;;;;;;4.95;1.50;;;7.60;99.90;;;;;;4999198;28;20123;-59
2022/02/05 10:45:16;;;;;;;6.03;1.40;;;7.60;99.90;;;;;;4984457;28;20081;-58
2022/02/05 10:47:51;;;;;;;6.38;2.33;;;7.70;99.90;;;;;;5000398;28;20089;-59
2022/02/05 10:50:21;;;;;;;4.88;1.45;;;7.70;99.90;;;;;;4997037;28;20116;-59
2022/02/05 10:52:58;;;;;;;8.20;2.20;;;7.80;99.90;;;;;;4997513;28;20135;-59
2022/02/05 10:58:31;;;;;;;7.38;2.55;;;7.90;99.90;;;;;;5000092;28;20053;-57
2022/02/05 11:07:10;;;;;;;7.43;1.80;;;8.20;99.90;;;;;;4995945;28;20128;-59
2022/02/05 11:09:41;;;;;;;7.38;1.83;;;8.20;99.90;;;;;;4990074;28;20063;-59
2022/02/05 11:20:17;;;;;;;7.53;1.65;;;8.40;99.90;;;;;;4987485;28;20136;-59
2022/02/05 11:22:50;;;;;;;6.35;1.83;;;8.50;99.90;;;;;;4993399;28;20039;-59
2022/02/05 11:25:18;;;;;;;5.22;2.05;;;8.70;99.90;;;;;;4995118;28;20128;-59
2022/02/05 11:27:49;;;;;;;6.20;1.83;;;8.70;99.90;;;;;;5008141;28;20053;-59
2022/02/05 11:30:32;;;;;;;6.35;1.65;;;8.80;99.90;;;;;;5010296;28;20065;-59
2022/02/05 11:33:04;;;;;;;5.18;1.75;;;8.80;99.90;;;;;;4998466;28;20569;-59
2022/02/05 11:35:58;;;;;;;6.13;1.75;;;8.90;99.90;;;;;;4998551;28;20137;-59
2022/02/05 11:38:33;;;;;;;6.95;1.88;;;8.90;99.90;;;;;;4999163;28;20077;-59
2022/02/05 11:41:01;;;;;;;4.78;1.65;;;9.10;99.90;;;;;;4999004;28;20058;-59
2022/02/05 11:43:33;;;;;;;5.20;1.75;;;9.20;99.90;;;;;;4998327;28;20553;-57
2022/02/05 11:46:14;;;;;;;9.35;2.38;;;9.20;99.90;;;;;;4999377;28;20088;-59
2022/02/05 11:48:40;;;;;;;6.60;1.50;;;9.30;99.90;;;;;;4998064;28;20113;-55
2022/02/05 11:51:28;;;;;;;7.65;1.80;;;9.30;99.90;;;;;;4997634;28;20050;-58
2022/02/05 11:53:55;;;;;;;4.72;1.83;;;9.40;99.90;;;;;;4991653;28;20482;-59
2022/02/05 11:56:23;;;;;;;6.78;1.83;;;9.50;99.90;;;;;;4989608;28;20104;-59
2022/02/05 11:58:59;;;;;;;10.07;1.83;;;9.50;99.90;;;;;;4996690;28;20054;-58
2022/02/05 12:01:38;;;;;;;5.60;1.98;;;9.60;99.90;;;;;;4985289;28;20085;-59
2022/02/05 12:04:16;;;;;;;5.68;1.90;;;9.70;99.90;;;;;;4989598;28;20060;-58
2022/02/05 12:06:58;;;;;;;5.47;1.52;;;9.90;99.90;;;;;;4998228;28;20181;-59
2022/02/05 12:09:46;;;;;;;3.70;1.35;;;9.90;99.90;;;;;;4986968;28;20060;-58
2022/02/05 12:12:23;;;;;;;7.15;2.00;;;9.90;99.90;;;;;;4999469;28;20060;-58
2022/02/05 12:15:15;;;;;;;4.90;1.60;;;9.90;99.90;;;;;;5007470;28;20306;-59
2022/02/05 12:18:09;;;;;;;4.03;1.30;;;10.00;99.90;;;;;;4996580;28;20132;-58
2022/02/05 12:20:58;;;;;;;5.72;1.67;;;10.20;99.90;;;;;;4997375;28;20050;-59
2022/02/05 12:26:25;;;;;;;4.45;1.88;;;10.40;99.90;;;;;;4998866;28;20156;-59
2022/02/05 12:28:54;;;;;;;4.72;1.20;;;10.60;99.90;;;;;;4995225;28;20085;-59
2022/02/05 12:31:21;;;;;;;4.22;1.40;;;10.70;99.90;;;;;;4999365;28;20101;-59
2022/02/05 12:33:56;;;;;;;4.30;1.23;;;10.80;99.90;;;;;;4998030;28;20128;-59
2022/02/05 12:36:26;;;;;;;3.28;1.38;;;11.00;99.90;;;;;;4999670;28;20054;-59
2022/02/05 12:38:53;;;;;;;4.22;1.45;;;11.00;99.90;;;;;;4997469;28;20486;-59
2022/02/05 12:41:25;;;;;;;3.33;1.50;;;11.00;99.90;;;;;;4998857;28;20104;-59
2022/02/05 12:44:03;;;;;;;5.68;1.27;;;11.00;99.90;;;;;;4995965;28;20078;-59
2022/02/05 12:46:38;;;;;;;4.55;1.40;;;10.90;99.90;;;;;;4999777;28;20065;-59
2022/02/05 12:49:13;;;;;;;4.07;1.80;;;10.80;99.90;;;;;;4998482;28;20125;-59
2022/02/05 12:51:43;;;;;;;2.70;1.08;;;10.80;99.90;;;;;;4997192;28;20173;-59
2022/02/05 12:54:13;;;;;;;3.90;1.38;;;11.00;99.90;;;;;;4997861;28;20058;-59
2022/02/05 12:56:41;;;;;;;4.60;1.40;;;11.30;99.90;;;;;;5000129;28;20228;-58
2022/02/05 12:59:14;;;;;;;2.78;1.00;;;11.50;99.90;;;;;;5001412;28;20687;-59
2022/02/05 13:01:58;;;;;;;2.47;1.23;;;11.80;99.90;;;;;;5001351;28;20606;-60
2022/02/05 13:04:36;;;;;;;5.47;1.50;;;12.00;99.90;;;;;;5001252;28;20169;-59
2022/02/05 13:07:12;;;;;;;4.78;1.50;;;12.20;99.90;;;;;;4995922;28;20134;-60
2022/02/05 13:09:51;;;;;;;4.25;1.35;;;12.30;99.90;;;;;;4992410;28;20081;-57
2022/02/05 13:12:20;;;;;;;4.32;1.38;;;12.50;99.90;;;;;;5003850;28;20133;-58
2022/02/05 13:14:49;;;;;;;2.92;1.30;;;12.40;99.90;;;;;;4994489;28;20133;-58
2022/02/05 13:17:28;;;;;;;3.80;1.25;;;12.50;99.90;;;;;;4995908;28;20054;-59
2022/02/05 13:36:16;;;;;;;4.15;1.30;;;12.50;99.90;;;;;;4994252;28;20081;-59
2022/02/05 13:41:38;;;;;;;1.98;0.90;;;12.30;99.90;;;;;;4991133;28;20001;-59
2022/02/05 13:44:05;;;;;;;3.08;1.38;;;12.50;99.90;;;;;;4993318;28;20223;-59
2022/02/05 13:46:34;;;;;;;2.30;1.17;;;12.50;99.90;;;;;;4989118;28;20244;-59
2022/02/05 13:49:18;;;;;;;4.15;1.30;;;12.50;99.90;;;;;;4995877;28;20085;-59
2022/02/05 13:51:45;;;;;;;2.58;1.33;;;12.30;99.90;;;;;;4999746;28;20061;-59
2022/02/05 13:54:12;;;;;;;1.80;1.10;;;12.10;99.90;;;;;;4990543;28;20038;-59
2022/02/05 13:56:39;;;;;;;2.83;1.30;;;12.20;99.90;;;;;;4993338;28;20607;-59
2022/02/05 13:59:18;;;;;;;3.63;1.27;;;12.30;99.90;;;;;;4997979;28;20129;-59
2022/02/05 14:01:45;;;;;;;4.47;1.33;;;12.50;99.90;;;;;;5000068;28;20577;-59
2022/02/05 14:04:23;;;;;;;4.88;1.58;;;12.30;99.90;;;;;;4998114;28;20133;-59
2022/02/05 14:06:50;;;;;;;2.80;1.05;;;12.30;99.90;;;;;;4994764;28;20093;-58
2022/02/05 14:09:22;;;;;;;4.60;1.45;;;12.00;99.90;;;;;;5000286;28;20184;-59
2022/02/05 14:11:48;;;;;;;4.55;1.30;;;11.80;99.90;;;;;;5001184;28;20108;-59
2022/02/05 14:14:25;;;;;;;4.03;1.35;;;11.60;99.90;;;;;;4997705;28;20502;-59
2022/02/05 14:16:51;;;;;;;3.35;1.23;;;11.50;99.90;;;;;;4995499;28;20081;-57
2022/02/05 14:19:26;;;;;;;2.38;1.10;;;11.50;99.90;;;;;;4996270;28;20049;-59
2022/02/05 14:21:54;;;;;;;3.40;1.25;;;11.40;99.90;;;;;;4992895;28;20365;-58
2022/02/05 14:24:23;;;;;;;2.30;0.90;;;11.40;99.90;;;;;;4996377;28;20050;-58
2022/02/05 14:27:04;;;;;;;3.58;1.30;;;11.30;99.90;;;;;;4997758;28;20058;-58
2022/02/05 14:29:55;;;;;;;2.88;1.25;;;11.20;99.90;;;;;;4998013;28;20425;-59
2022/02/05 14:42:48;;;;;;;3.67;1.02;;;10.80;99.90;;;;;;4996219;28;20131;-59
2022/02/05 14:45:15;;;;;;;2.55;0.95;;;10.70;99.90;;;;;;4991049;28;20584;-58
2022/02/05 14:47:41;;;;;;;4.65;1.00;;;10.70;99.90;;;;;;5006513;28;20128;-58
2022/02/05 14:50:08;;;;;;;3.75;1.10;;;10.70;99.90;;;;;;5015953;28;20574;-59
2022/02/05 14:52:35;;;;;;;3.00;1.00;;;10.70;99.90;;;;;;5013211;28;20093;-59
2022/02/05 14:55:02;;;;;;;3.95;1.42;;;10.80;99.90;;;;;;5001797;28;20133;-59
2022/02/05 14:57:29;;;;;;;3.65;1.50;;;10.90;99.90;;;;;;5000461;28;20145;-59
2022/02/05 14:59:55;;;;;;;3.15;1.33;;;11.10;99.90;;;;;;4999304;28;20089;-59
2022/02/05 15:02:22;;;;;;;2.97;1.20;;;11.20;99.90;;;;;;5000422;28;20150;-59
2022/02/05 15:04:49;;;;;;;3.78;1.23;;;11.00;99.90;;;;;;4998906;28;20096;-58
2022/02/05 15:07:18;;;;;;;3.20;1.38;;;11.00;99.90;;;;;;5000657;28;20240;-57
2022/02/05 15:09:45;;;;;;;2.38;1.20;;;11.00;99.90;;;;;;5000155;28;20135;-59
2022/02/05 15:12:12;;;;;;;1.60;0.98;;;11.00;99.90;;;;;;5000623;28;20140;-58
2022/02/05 15:14:39;;;;;;;3.00;1.25;;;11.00;99.90;;;;;;4998558;28;20493;-59
2022/02/05 15:17:06;;;;;;;2.88;1.17;;;11.00;99.90;;;;;;5000014;28;20815;-59
2022/02/05 15:19:32;;;;;;;5.57;1.70;;;11.00;99.90;;;;;;4999151;28;20092;-60
2022/02/05 15:21:59;;;;;;;2.42;1.20;;;10.90;99.90;;;;;;5000206;28;20155;-59
2022/02/05 15:24:26;;;;;;;2.30;1.10;;;10.90;99.90;;;;;;4999300;28;20085;-59
2022/02/05 15:26:53;;;;;;;2.25;1.05;;;10.90;99.90;;;;;;5000659;28;20081;-59
2022/02/05 15:29:19;;;;;;;2.85;0.90;;;10.90;99.90;;;;;;4998952;28;20076;-59
2022/02/05 15:31:48;;;;;;;2.92;1.42;;;10.90;99.90;;;;;;4999943;28;20849;-60
2022/02/05 15:34:15;;;;;;;2.13;1.08;;;10.90;99.90;;;;;;4990983;28;20096;-59
2022/02/05 15:39:30;;;;;;;3.13;1.23;;;10.80;99.90;;;;;;5016721;28;20057;-58
2022/02/05 15:44:47;;;;;;;3.55;1.40;;;10.80;99.90;;;;;;5002295;28;20069;-58
2022/02/05 15:47:14;;;;;;;6.40;1.70;;;10.80;99.90;;;;;;4999743;28;20165;-59
2022/02/05 15:49:40;;;;;;;7.55;1.42;;;10.80;99.90;;;;;;4987915;28;20054;-59
2022/02/05 15:52:07;;;;;;;2.83;1.33;;;10.70;99.90;;;;;;4991407;28;20133;-59
2022/02/05 15:54:34;;;;;;;4.53;1.50;;;10.70;99.90;;;;;;4988746;28;20081;-59
2022/02/05 16:02:17;;;;;;;3.80;1.63;;;10.70;99.90;;;;;;4992802;28;21141;-59
2022/02/05 16:04:44;;;;;;;2.65;1.00;;;10.70;99.90;;;;;;4996202;28;20107;-59
2022/02/05 16:07:11;;;;;;;3.70;1.13;;;10.60;99.90;;;;;;4999486;28;20297;-58
2022/02/05 16:09:38;;;;;;;3.53;1.17;;;10.60;99.90;;;;;;4999302;28;20460;-59
2022/02/05 16:12:05;;;;;;;3.53;1.20;;;10.60;99.90;;;;;;4999743;28;20148;-58
2022/02/05 16:14:32;;;;;;;5.55;2.17;;;10.50;99.90;;;;;;4997484;28;20568;-59
2022/02/05 16:17:01;;;;;;;3.45;1.20;;;10.50;99.90;;;;;;4999083;28;20046;-59
2022/02/05 16:19:31;;;;;;;6.32;1.70;;;10.50;99.90;;;;;;4997752;28;20053;-59
2022/02/05 16:21:58;;;;;;;3.53;1.38;;;10.40;99.90;;;;;;4999716;28;20085;-59
2022/02/05 16:24:25;;;;;;;4.63;1.60;;;10.40;99.90;;;;;;4998908;28;20054;-59
2022/02/05 16:26:52;;;;;;;4.93;1.42;;;10.40;99.90;;;;;;4999621;28;20075;-58
2022/02/05 16:29:25;;;;;;;4.85;1.60;;;10.30;99.90;;;;;;4995794;28;20053;-59
2022/02/05 16:31:53;;;;;;;;;;;10.30;99.90;;;;;;4999941;28;20132;-59
2022/02/05 16:34:21;;;;;;;4.03;1.40;;;10.40;99.90;;;;;;5001706;28;20084;-59
2022/02/05 16:36:48;;;;;;;4.95;1.73;;;10.40;99.90;;;;;;5002683;28;20129;-59
2022/02/05 16:39:15;;;;;;;8.38;3.05;;;10.30;99.90;;;;;;5001019;28;20527;-58
2022/02/05 16:41:42;;;;;;;5.60;1.95;;;10.30;99.90;;;;;;5000885;28;20089;-59
2022/02/05 16:44:09;;;;;;;5.60;2.30;;;10.30;99.90;;;;;;4993926;28;20557;-60
2022/02/05 16:46:39;;;;;;;5.93;2.05;;;10.30;99.90;;;;;;4989417;28;20058;-59